sensor_id;sensor_type;location;lat;lon;timestamp;temperature;humidity
6724;DHT22;3399;52.530;13.304;2024-02-21T00:00:19;9.00;99.90
6724;DHT22;3399;52.530;13.304;2024-02-21T00:02:45;8.90;99.90
6724;DHT22;3399;52.530;13.304;2024-02-21T00:05:10;9.00;99.90
6724;DHT22;3399;52.530;13.304;2024-02-21T00:07:36;9.00;99.90
6724;DHT22;3399;52.530;13.304;2024-02-21T00:10:01;9.00;99.90
6724;DHT22;3399;52.530;13.304;2024-02-21T00:12:27;9.00;99.90
6724;DHT22;3399;52.530;13.304;2024-02-21T00:14:53;9.10;99.90
6724;DHT22;3399;52.530;13.304;2024-02-21T00:17:18;9.10;99.90
6724;DHT22;3399;52.530;13.304;2024-02-21T00:19:44;9.10;99.90
6724;DHT22;3399;52.530;13.304;2024-02-21T00:22:09;9.10;99.90
6724;DHT22;3399;52.530;13.304;2024-02-21T00:24:34;9.00;99.90
6724;DHT22;3399;52.530;13.304;2024-02-21T00:27:00;9.10;99.90
6724;DHT22;3399;52.530;13.304;2024-02-21T00:29:25;9.10;99.90
6724;DHT22;3399;52.530;13.304;2024-02-21T00:31:52;9.10;99.90
6724;DHT22;3399;52.530;13.304;2024-02-21T00:34:18;9.00;99.90
6724;DHT22;3399;52.530;13.304;2024-02-21T00:36:46;8.90;99.90
6724;DHT22;3399;52.530;13.304;2024-02-21T00:39:14;9.00;99.90
6724;DHT22;3399;52.530;13.304;2024-02-21T00:41:40;8.90;99.90
6724;DHT22;3399;52.530;13.304;2024-02-21T00:44:05;8.80;99.90
6724;DHT22;3399;52.530;13.304;2024-02-21T00:46:31;8.80;99.90
6724;DHT22;3399;52.530;13.304;2024-02-21T00:48:57;8.80;99.90
6724;DHT22;3399;52.530;13.304;2024-02-21T00:51:22;8.80;99.90
6724;DHT22;3399;52.530;13.304;2024-02-21T00:53:48;8.80;99.90
6724;DHT22;3399;52.530;13.304;2024-02-21T00:56:13;8.80;99.90
6724;DHT22;3399;52.530;13.304;2024-02-21T00:58:38;8.80;99.90
6724;DHT22;3399;52.530;13.304;2024-02-21T01:01:04;8.80;99.90
6724;DHT22;3399;52.530;13.304;2024-02-21T01:03:30;8.80;99.90
6724;DHT22;3399;52.530;13.304;2024-02-21T01:05:55;8.80;99.90
6724;DHT22;3399;52.530;13.304;2024-02-21T01:08:21;8.80;99.90
6724;DHT22;3399;52.530;13.304;2024-02-21T01:10:46;8.80;99.90
6724;DHT22;3399;52.530;13.304;2024-02-21T01:13:12;8.60;99.90
6724;DHT22;3399;52.530;13.304;2024-02-21T01:15:37;8.60;99.90
6724;DHT22;3399;52.530;13.304;2024-02-21T01:18:03;8.70;99.90
6724;DHT22;3399;52.530;13.304;2024-02-21T01:20:30;8.60;99.90
6724;DHT22;3399;52.530;13.304;2024-02-21T01:22:55;8.70;99.90
6724;DHT22;3399;52.530;13.304;2024-02-21T01:25:21;8.70;99.90
6724;DHT22;3399;52.530;13.304;2024-02-21T01:27:46;8.70;99.90
6724;DHT22;3399;52.530;13.304;2024-02-21T01:30:12;8.60;99.90
6724;DHT22;3399;52.530;13.304;2024-02-21T01:32:37;8.60;99.90
6724;DHT22;3399;52.530;13.304;2024-02-21T01:35:03;8.70;99.90
6724;DHT22;3399;52.530;13.304;2024-02-21T01:37:29;8.70;99.90
6724;DHT22;3399;52.530;13.304;2024-02-21T01:39:54;8.60;99.90
6724;DHT22;3399;52.530;13.304;2024-02-21T01:42:20;8.70;99.90
6724;DHT22;3399;52.530;13.304;2024-02-21T01:44:45;8.70;99.90
6724;DHT22;3399;52.530;13.304;2024-02-21T01:47:11;8.60;99.90
6724;DHT22;3399;52.530;13.304;2024-02-21T01:49:40;8.50;99.90
6724;DHT22;3399;52.530;13.304;2024-02-21T01:52:05;8.60;99.90
6724;DHT22;3399;52.530;13.304;2024-02-21T01:54:31;8.70;99.90
6724;DHT22;3399;52.530;13.304;2024-02-21T01:56:57;8.70;99.90
6724;DHT22;3399;52.530;13.304;2024-02-21T01:59:23;8.70;99.90
6724;DHT22;3399;52.530;13.304;2024-02-21T02:01:51;8.60;99.90
6724;DHT22;3399;52.530;13.304;2024-02-21T02:04:17;8.70;99.90
6724;DHT22;3399;52.530;13.304;2024-02-21T02:06:42;8.70;99.90
6724;DHT22;3399;52.530;13.304;2024-02-21T02:09:08;8.70;99.90
6724;DHT22;3399;52.530;13.304;2024-02-21T02:11:34;8.70;99.90
6724;DHT22;3399;52.530;13.304;2024-02-21T02:14:00;8.70;99.90
6724;DHT22;3399;52.530;13.304;2024-02-21T02:16:26;8.70;99.90
6724;DHT22;3399;52.530;13.304;2024-02-21T02:18:51;8.70;99.90
6724;DHT22;3399;52.530;13.304;2024-02-21T02:21:29;8.50;99.90
6724;DHT22;3399;52.530;13.304;2024-02-21T02:23:56;8.40;99.90
6724;DHT22;3399;52.530;13.304;2024-02-21T02:26:21;8.50;99.90
6724;DHT22;3399;52.530;13.304;2024-02-21T02:28:47;8.40;99.90
6724;DHT22;3399;52.530;13.304;2024-02-21T02:31:12;8.40;99.90
6724;DHT22;3399;52.530;13.304;2024-02-21T02:33:38;8.30;99.90
6724;DHT22;3399;52.530;13.304;2024-02-21T02:36:04;8.20;99.90
6724;DHT22;3399;52.530;13.304;2024-02-21T02:38:29;8.20;99.90
6724;DHT22;3399;52.530;13.304;2024-02-21T02:40:55;8.20;99.90
6724;DHT22;3399;52.530;13.304;2024-02-21T02:43:20;8.00;99.90
6724;DHT22;3399;52.530;13.304;2024-02-21T02:45:46;8.10;99.90
6724;DHT22;3399;52.530;13.304;2024-02-21T02:48:11;8.00;99.90
6724;DHT22;3399;52.530;13.304;2024-02-21T02:50:37;8.00;99.90
6724;DHT22;3399;52.530;13.304;2024-02-21T02:53:02;8.10;99.90
6724;DHT22;3399;52.530;13.304;2024-02-21T02:55:28;8.10;99.90
6724;DHT22;3399;52.530;13.304;2024-02-21T02:57:54;8.00;99.90
6724;DHT22;3399;52.530;13.304;2024-02-21T03:00:19;7.90;99.90
6724;DHT22;3399;52.530;13.304;2024-02-21T03:02:46;7.80;99.90
6724;DHT22;3399;52.530;13.304;2024-02-21T03:05:20;7.80;99.90
6724;DHT22;3399;52.530;13.304;2024-02-21T03:07:46;7.90;99.90
6724;DHT22;3399;52.530;13.304;2024-02-21T03:10:12;7.90;99.90
6724;DHT22;3399;52.530;13.304;2024-02-21T03:12:38;7.90;99.90
6724;DHT22;3399;52.530;13.304;2024-02-21T03:15:04;7.80;99.90
6724;DHT22;3399;52.530;13.304;2024-02-21T03:17:30;7.80;99.90
6724;DHT22;3399;52.530;13.304;2024-02-21T03:19:57;7.70;99.90
6724;DHT22;3399;52.530;13.304;2024-02-21T03:22:22;7.70;99.90
6724;DHT22;3399;52.530;13.304;2024-02-21T03:24:48;7.80;99.90
6724;DHT22;3399;52.530;13.304;2024-02-21T03:27:13;7.80;99.90
6724;DHT22;3399;52.530;13.304;2024-02-21T03:29:39;7.60;99.90
6724;DHT22;3399;52.530;13.304;2024-02-21T03:32:05;7.70;99.90
6724;DHT22;3399;52.530;13.304;2024-02-21T03:34:30;7.70;99.90
6724;DHT22;3399;52.530;13.304;2024-02-21T03:36:56;7.60;99.90
6724;DHT22;3399;52.530;13.304;2024-02-21T03:39:21;7.50;99.90
6724;DHT22;3399;52.530;13.304;2024-02-21T03:41:47;7.60;99.90
6724;DHT22;3399;52.530;13.304;2024-02-21T03:44:13;7.60;99.90
6724;DHT22;3399;52.530;13.304;2024-02-21T03:46:39;7.50;99.90
6724;DHT22;3399;52.530;13.304;2024-02-21T03:49:04;7.50;99.90
6724;DHT22;3399;52.530;13.304;2024-02-21T03:51:30;7.40;99.90
6724;DHT22;3399;52.530;13.304;2024-02-21T03:53:55;7.50;99.90
6724;DHT22;3399;52.530;13.304;2024-02-21T03:56:21;7.50;99.90
6724;DHT22;3399;52.530;13.304;2024-02-21T03:58:46;7.50;99.90
6724;DHT22;3399;52.530;13.304;2024-02-21T04:01:11;7.50;99.90
6724;DHT22;3399;52.530;13.304;2024-02-21T04:03:38;7.60;99.90
6724;DHT22;3399;52.530;13.304;2024-02-21T04:06:04;7.60;99.90
6724;DHT22;3399;52.530;13.304;2024-02-21T04:08:29;7.50;99.90
6724;DHT22;3399;52.530;13.304;2024-02-21T04:10:55;7.50;99.90
6724;DHT22;3399;52.530;13.304;2024-02-21T04:13:21;7.60;99.90
6724;DHT22;3399;52.530;13.304;2024-02-21T04:15:48;7.60;99.90
6724;DHT22;3399;52.530;13.304;2024-02-21T04:18:13;7.70;99.90
6724;DHT22;3399;52.530;13.304;2024-02-21T04:20:40;7.60;99.90
6724;DHT22;3399;52.530;13.304;2024-02-21T04:23:05;7.50;99.90
6724;DHT22;3399;52.530;13.304;2024-02-21T04:25:31;7.60;99.90
6724;DHT22;3399;52.530;13.304;2024-02-21T04:27:56;7.60;99.90
6724;DHT22;3399;52.530;13.304;2024-02-21T04:30:22;7.70;99.90
6724;DHT22;3399;52.530;13.304;2024-02-21T04:32:47;7.70;99.90
6724;DHT22;3399;52.530;13.304;2024-02-21T04:35:13;7.70;99.90
6724;DHT22;3399;52.530;13.304;2024-02-21T04:37:39;7.80;99.90
6724;DHT22;3399;52.530;13.304;2024-02-21T04:40:05;7.80;99.90
6724;DHT22;3399;52.530;13.304;2024-02-21T04:42:30;7.80;99.90
6724;DHT22;3399;52.530;13.304;2024-02-21T04:44:56;7.80;99.90
6724;DHT22;3399;52.530;13.304;2024-02-21T04:47:21;7.80;99.90
6724;DHT22;3399;52.530;13.304;2024-02-21T04:49:48;7.90;99.90
6724;DHT22;3399;52.530;13.304;2024-02-21T04:52:14;8.00;99.90
6724;DHT22;3399;52.530;13.304;2024-02-21T04:54:39;8.00;99.90
6724;DHT22;3399;52.530;13.304;2024-02-21T04:57:05;8.00;99.90
6724;DHT22;3399;52.530;13.304;2024-02-21T04:59:30;8.00;99.90
6724;DHT22;3399;52.530;13.304;2024-02-21T05:01:56;8.00;99.90
6724;DHT22;3399;52.530;13.304;2024-02-21T05:04:23;8.00;99.90
6724;DHT22;3399;52.530;13.304;2024-02-21T05:06:49;8.00;99.90
6724;DHT22;3399;52.530;13.304;2024-02-21T05:09:14;7.90;99.90
6724;DHT22;3399;52.530;13.304;2024-02-21T05:11:40;7.90;99.90
6724;DHT22;3399;52.530;13.304;2024-02-21T05:14:05;7.90;99.90
6724;DHT22;3399;52.530;13.304;2024-02-21T05:16:32;8.00;99.90
6724;DHT22;3399;52.530;13.304;2024-02-21T05:18:57;7.90;99.90
6724;DHT22;3399;52.530;13.304;2024-02-21T05:21:23;7.90;99.90
6724;DHT22;3399;52.530;13.304;2024-02-21T05:23:50;7.90;99.90
6724;DHT22;3399;52.530;13.304;2024-02-21T05:26:25;7.90;99.90
6724;DHT22;3399;52.530;13.304;2024-02-21T05:28:51;7.90;99.90
6724;DHT22;3399;52.530;13.304;2024-02-21T05:31:20;8.00;99.90
6724;DHT22;3399;52.530;13.304;2024-02-21T05:33:46;8.00;99.90
6724;DHT22;3399;52.530;13.304;2024-02-21T05:36:13;8.00;99.90
6724;DHT22;3399;52.530;13.304;2024-02-21T05:38:39;8.00;99.90
6724;DHT22;3399;52.530;13.304;2024-02-21T05:41:04;7.90;99.90
6724;DHT22;3399;52.530;13.304;2024-02-21T05:43:30;8.00;99.90
6724;DHT22;3399;52.530;13.304;2024-02-21T05:45:56;7.90;99.90
6724;DHT22;3399;52.530;13.304;2024-02-21T05:48:22;8.00;99.90
6724;DHT22;3399;52.530;13.304;2024-02-21T05:50:48;8.00;99.90
6724;DHT22;3399;52.530;13.304;2024-02-21T05:53:13;8.10;99.90
6724;DHT22;3399;52.530;13.304;2024-02-21T05:55:39;8.10;99.90
6724;DHT22;3399;52.530;13.304;2024-02-21T05:58:05;8.10;99.90
6724;DHT22;3399;52.530;13.304;2024-02-21T06:00:37;8.10;99.90
6724;DHT22;3399;52.530;13.304;2024-02-21T06:03:03;8.10;99.90
6724;DHT22;3399;52.530;13.304;2024-02-21T06:05:28;8.00;99.90
6724;DHT22;3399;52.530;13.304;2024-02-21T06:07:54;8.00;99.90
6724;DHT22;3399;52.530;13.304;2024-02-21T06:10:19;8.00;99.90
6724;DHT22;3399;52.530;13.304;2024-02-21T06:12:45;8.10;99.90
6724;DHT22;3399;52.530;13.304;2024-02-21T06:15:10;7.90;99.90
6724;DHT22;3399;52.530;13.304;2024-02-21T06:17:36;8.00;99.90
6724;DHT22;3399;52.530;13.304;2024-02-21T06:20:01;8.10;99.90
6724;DHT22;3399;52.530;13.304;2024-02-21T06:22:27;8.10;99.90
6724;DHT22;3399;52.530;13.304;2024-02-21T06:24:52;8.10;99.90
6724;DHT22;3399;52.530;13.304;2024-02-21T06:27:19;7.90;99.90
6724;DHT22;3399;52.530;13.304;2024-02-21T06:29:44;8.00;99.90
6724;DHT22;3399;52.530;13.304;2024-02-21T06:32:10;8.00;99.90
6724;DHT22;3399;52.530;13.304;2024-02-21T06:34:35;8.10;99.90
6724;DHT22;3399;52.530;13.304;2024-02-21T06:37:01;8.10;99.90
6724;DHT22;3399;52.530;13.304;2024-02-21T06:39:26;8.00;99.90
6724;DHT22;3399;52.530;13.304;2024-02-21T06:41:54;8.10;99.90
6724;DHT22;3399;52.530;13.304;2024-02-21T06:44:20;8.10;99.90
6724;DHT22;3399;52.530;13.304;2024-02-21T06:46:46;8.10;99.90
6724;DHT22;3399;52.530;13.304;2024-02-21T06:49:11;8.10;99.90
6724;DHT22;3399;52.530;13.304;2024-02-21T06:51:44;8.10;99.90
6724;DHT22;3399;52.530;13.304;2024-02-21T06:54:10;8.00;99.90
6724;DHT22;3399;52.530;13.304;2024-02-21T06:56:36;8.20;99.90
6724;DHT22;3399;52.530;13.304;2024-02-21T06:59:03;8.20;99.90
6724;DHT22;3399;52.530;13.304;2024-02-21T07:01:31;8.30;99.90
6724;DHT22;3399;52.530;13.304;2024-02-21T07:03:57;8.10;99.90
6724;DHT22;3399;52.530;13.304;2024-02-21T07:06:23;8.20;99.90
6724;DHT22;3399;52.530;13.304;2024-02-21T07:08:48;8.20;99.90
6724;DHT22;3399;52.530;13.304;2024-02-21T07:11:14;8.30;99.90
6724;DHT22;3399;52.530;13.304;2024-02-21T07:13:39;8.20;99.90
6724;DHT22;3399;52.530;13.304;2024-02-21T07:16:06;8.20;99.90
6724;DHT22;3399;52.530;13.304;2024-02-21T07:18:32;8.20;99.90
6724;DHT22;3399;52.530;13.304;2024-02-21T07:20:57;8.30;99.90
6724;DHT22;3399;52.530;13.304;2024-02-21T07:23:23;8.20;99.90
6724;DHT22;3399;52.530;13.304;2024-02-21T07:25:49;8.30;99.90
6724;DHT22;3399;52.530;13.304;2024-02-21T07:28:14;8.30;99.90
6724;DHT22;3399;52.530;13.304;2024-02-21T07:30:42;8.40;99.90
6724;DHT22;3399;52.530;13.304;2024-02-21T07:33:07;8.40;99.90
6724;DHT22;3399;52.530;13.304;2024-02-21T07:35:33;8.50;99.90
6724;DHT22;3399;52.530;13.304;2024-02-21T07:37:58;8.40;99.90
6724;DHT22;3399;52.530;13.304;2024-02-21T07:40:24;8.30;99.90
6724;DHT22;3399;52.530;13.304;2024-02-21T07:42:49;8.10;99.90
6724;DHT22;3399;52.530;13.304;2024-02-21T07:45:15;8.30;99.90
6724;DHT22;3399;52.530;13.304;2024-02-21T07:47:40;8.40;99.90
6724;DHT22;3399;52.530;13.304;2024-02-21T07:50:06;8.40;99.90
6724;DHT22;3399;52.530;13.304;2024-02-21T07:52:32;8.40;99.90
6724;DHT22;3399;52.530;13.304;2024-02-21T07:54:58;8.50;99.90
6724;DHT22;3399;52.530;13.304;2024-02-21T07:57:24;8.40;99.90
6724;DHT22;3399;52.530;13.304;2024-02-21T07:59:49;8.50;99.90
6724;DHT22;3399;52.530;13.304;2024-02-21T08:02:15;8.50;99.90
6724;DHT22;3399;52.530;13.304;2024-02-21T08:04:41;8.50;99.90
6724;DHT22;3399;52.530;13.304;2024-02-21T08:07:07;8.50;99.90
6724;DHT22;3399;52.530;13.304;2024-02-21T08:09:34;8.30;99.90
6724;DHT22;3399;52.530;13.304;2024-02-21T08:12:00;8.40;99.90
6724;DHT22;3399;52.530;13.304;2024-02-21T08:14:25;8.60;99.90
6724;DHT22;3399;52.530;13.304;2024-02-21T08:16:51;8.60;99.90
6724;DHT22;3399;52.530;13.304;2024-02-21T08:19:19;8.60;99.90
6724;DHT22;3399;52.530;13.304;2024-02-21T08:21:44;8.60;99.90
6724;DHT22;3399;52.530;13.304;2024-02-21T08:24:15;8.50;99.90
6724;DHT22;3399;52.530;13.304;2024-02-21T08:26:41;8.60;99.90
6724;DHT22;3399;52.530;13.304;2024-02-21T08:29:07;8.60;99.90
6724;DHT22;3399;52.530;13.304;2024-02-21T08:31:32;8.50;99.90
6724;DHT22;3399;52.530;13.304;2024-02-21T08:34:02;8.70;99.90
6724;DHT22;3399;52.530;13.304;2024-02-21T08:36:32;8.70;99.90
6724;DHT22;3399;52.530;13.304;2024-02-21T08:38:58;8.80;99.90
6724;DHT22;3399;52.530;13.304;2024-02-21T08:41:24;8.80;99.90
6724;DHT22;3399;52.530;13.304;2024-02-21T08:43:51;8.80;99.90
6724;DHT22;3399;52.530;13.304;2024-02-21T08:46:16;8.80;99.90
6724;DHT22;3399;52.530;13.304;2024-02-21T08:48:43;8.80;99.90
6724;DHT22;3399;52.530;13.304;2024-02-21T08:51:12;8.80;99.90
6724;DHT22;3399;52.530;13.304;2024-02-21T08:53:37;8.80;99.90
6724;DHT22;3399;52.530;13.304;2024-02-21T08:56:03;9.00;99.90
6724;DHT22;3399;52.530;13.304;2024-02-21T08:58:29;9.20;99.90
6724;DHT22;3399;52.530;13.304;2024-02-21T09:00:55;9.20;99.90
6724;DHT22;3399;52.530;13.304;2024-02-21T09:03:20;9.00;99.90
6724;DHT22;3399;52.530;13.304;2024-02-21T09:05:46;9.00;99.90
6724;DHT22;3399;52.530;13.304;2024-02-21T09:08:12;9.00;99.90
6724;DHT22;3399;52.530;13.304;2024-02-21T09:10:39;9.20;99.90
6724;DHT22;3399;52.530;13.304;2024-02-21T09:13:04;9.20;99.90
6724;DHT22;3399;52.530;13.304;2024-02-21T09:15:30;9.10;99.90
6724;DHT22;3399;52.530;13.304;2024-02-21T09:17:55;9.20;99.90
6724;DHT22;3399;52.530;13.304;2024-02-21T09:20:21;9.20;99.90
6724;DHT22;3399;52.530;13.304;2024-02-21T09:22:46;9.00;99.90
6724;DHT22;3399;52.530;13.304;2024-02-21T09:25:12;9.00;99.90
6724;DHT22;3399;52.530;13.304;2024-02-21T09:27:39;9.10;99.90
6724;DHT22;3399;52.530;13.304;2024-02-21T09:30:06;9.20;99.90
6724;DHT22;3399;52.530;13.304;2024-02-21T09:32:31;9.40;99.90
6724;DHT22;3399;52.530;13.304;2024-02-21T09:35:00;9.30;99.90
6724;DHT22;3399;52.530;13.304;2024-02-21T09:37:25;9.20;99.90
6724;DHT22;3399;52.530;13.304;2024-02-21T09:39:51;9.50;99.90
6724;DHT22;3399;52.530;13.304;2024-02-21T09:42:20;9.60;99.90
6724;DHT22;3399;52.530;13.304;2024-02-21T09:44:46;9.60;99.90
6724;DHT22;3399;52.530;13.304;2024-02-21T09:47:34;9.40;99.90
6724;DHT22;3399;52.530;13.304;2024-02-21T09:50:04;9.60;99.90
6724;DHT22;3399;52.530;13.304;2024-02-21T09:52:30;9.80;99.90
6724;DHT22;3399;52.530;13.304;2024-02-21T09:54:58;9.70;99.90
6724;DHT22;3399;52.530;13.304;2024-02-21T09:57:24;9.60;99.90
6724;DHT22;3399;52.530;13.304;2024-02-21T09:59:51;9.70;99.90
6724;DHT22;3399;52.530;13.304;2024-02-21T10:02:17;9.80;99.90
6724;DHT22;3399;52.530;13.304;2024-02-21T10:04:43;10.00;99.90
6724;DHT22;3399;52.530;13.304;2024-02-21T10:07:08;10.00;99.90
6724;DHT22;3399;52.530;13.304;2024-02-21T10:09:34;10.00;99.90
6724;DHT22;3399;52.530;13.304;2024-02-21T10:12:10;10.10;99.90
6724;DHT22;3399;52.530;13.304;2024-02-21T10:14:36;10.00;99.90
6724;DHT22;3399;52.530;13.304;2024-02-21T10:17:02;9.90;99.90
6724;DHT22;3399;52.530;13.304;2024-02-21T10:19:29;9.70;99.90
6724;DHT22;3399;52.530;13.304;2024-02-21T10:22:03;9.60;99.90
6724;DHT22;3399;52.530;13.304;2024-02-21T10:24:30;9.70;99.90
6724;DHT22;3399;52.530;13.304;2024-02-21T10:27:03;9.80;99.90
6724;DHT22;3399;52.530;13.304;2024-02-21T10:29:32;9.70;99.90
6724;DHT22;3399;52.530;13.304;2024-02-21T10:32:07;9.70;99.90
6724;DHT22;3399;52.530;13.304;2024-02-21T10:34:33;9.80;99.90
6724;DHT22;3399;52.530;13.304;2024-02-21T10:37:03;9.90;99.90
6724;DHT22;3399;52.530;13.304;2024-02-21T10:39:30;9.90;99.90
6724;DHT22;3399;52.530;13.304;2024-02-21T10:41:59;9.90;99.90
6724;DHT22;3399;52.530;13.304;2024-02-21T10:44:28;10.00;99.90
6724;DHT22;3399;52.530;13.304;2024-02-21T10:46:55;10.10;99.90
6724;DHT22;3399;52.530;13.304;2024-02-21T10:49:23;9.80;99.90
6724;DHT22;3399;52.530;13.304;2024-02-21T10:54:53;9.90;99.90
6724;DHT22;3399;52.530;13.304;2024-02-21T10:57:21;9.90;99.90
6724;DHT22;3399;52.530;13.304;2024-02-21T10:59:48;9.90;99.90
6724;DHT22;3399;52.530;13.304;2024-02-21T11:02:15;9.80;99.90
6724;DHT22;3399;52.530;13.304;2024-02-21T11:04:41;9.90;99.90
6724;DHT22;3399;52.530;13.304;2024-02-21T11:07:07;10.00;99.90
6724;DHT22;3399;52.530;13.304;2024-02-21T11:09:34;10.10;99.90
6724;DHT22;3399;52.530;13.304;2024-02-21T11:12:06;10.30;99.90
6724;DHT22;3399;52.530;13.304;2024-02-21T11:14:32;10.60;99.90
6724;DHT22;3399;52.530;13.304;2024-02-21T11:16:58;10.80;99.90
6724;DHT22;3399;52.530;13.304;2024-02-21T11:19:28;11.00;99.90
6724;DHT22;3399;52.530;13.304;2024-02-21T11:21:55;11.00;99.90
6724;DHT22;3399;52.530;13.304;2024-02-21T11:24:28;11.40;99.90
6724;DHT22;3399;52.530;13.304;2024-02-21T11:27:14;11.80;99.90
6724;DHT22;3399;52.530;13.304;2024-02-21T11:29:46;11.50;99.90
6724;DHT22;3399;52.530;13.304;2024-02-21T11:32:15;11.30;99.90
6724;DHT22;3399;52.530;13.304;2024-02-21T11:34:41;11.30;99.90
6724;DHT22;3399;52.530;13.304;2024-02-21T11:37:16;11.80;99.90
6724;DHT22;3399;52.530;13.304;2024-02-21T11:39:41;11.70;99.90
6724;DHT22;3399;52.530;13.304;2024-02-21T11:42:08;11.70;99.90
6724;DHT22;3399;52.530;13.304;2024-02-21T11:44:35;11.70;99.90
6724;DHT22;3399;52.530;13.304;2024-02-21T11:47:01;11.60;99.90
6724;DHT22;3399;52.530;13.304;2024-02-21T11:49:28;11.60;99.90
6724;DHT22;3399;52.530;13.304;2024-02-21T11:52:00;11.50;99.90
6724;DHT22;3399;52.530;13.304;2024-02-21T11:54:27;11.10;99.90
6724;DHT22;3399;52.530;13.304;2024-02-21T11:56:53;11.10;99.90
6724;DHT22;3399;52.530;13.304;2024-02-21T11:59:19;11.30;99.90
6724;DHT22;3399;52.530;13.304;2024-02-21T12:01:44;11.40;99.90
6724;DHT22;3399;52.530;13.304;2024-02-21T12:04:10;11.80;99.90
6724;DHT22;3399;52.530;13.304;2024-02-21T12:06:36;12.00;99.90
6724;DHT22;3399;52.530;13.304;2024-02-21T12:09:01;11.90;99.90
6724;DHT22;3399;52.530;13.304;2024-02-21T12:11:27;11.90;99.90
6724;DHT22;3399;52.530;13.304;2024-02-21T12:14:03;11.80;99.90
6724;DHT22;3399;52.530;13.304;2024-02-21T12:16:30;11.70;99.90
6724;DHT22;3399;52.530;13.304;2024-02-21T12:19:00;11.90;99.90
6724;DHT22;3399;52.530;13.304;2024-02-21T12:21:26;11.80;99.90
6724;DHT22;3399;52.530;13.304;2024-02-21T12:23:54;11.80;99.90
6724;DHT22;3399;52.530;13.304;2024-02-21T12:26:20;11.60;99.90
6724;DHT22;3399;52.530;13.304;2024-02-21T12:28:45;11.50;99.90
6724;DHT22;3399;52.530;13.304;2024-02-21T12:31:11;11.70;99.90
6724;DHT22;3399;52.530;13.304;2024-02-21T12:33:37;12.00;99.90
6724;DHT22;3399;52.530;13.304;2024-02-21T12:36:03;12.10;99.90
6724;DHT22;3399;52.530;13.304;2024-02-21T12:38:29;12.00;99.90
6724;DHT22;3399;52.530;13.304;2024-02-21T12:40:55;12.70;99.90
6724;DHT22;3399;52.530;13.304;2024-02-21T12:43:20;12.90;99.90
6724;DHT22;3399;52.530;13.304;2024-02-21T12:45:47;12.20;99.90
6724;DHT22;3399;52.530;13.304;2024-02-21T12:48:13;12.40;99.90
6724;DHT22;3399;52.530;13.304;2024-02-21T12:50:40;12.20;99.90
6724;DHT22;3399;52.530;13.304;2024-02-21T12:53:05;12.00;99.90
6724;DHT22;3399;52.530;13.304;2024-02-21T12:55:31;12.30;99.90
6724;DHT22;3399;52.530;13.304;2024-02-21T12:58:00;12.00;99.90
6724;DHT22;3399;52.530;13.304;2024-02-21T13:00:28;11.80;99.90
6724;DHT22;3399;52.530;13.304;2024-02-21T13:02:54;12.00;99.90
6724;DHT22;3399;52.530;13.304;2024-02-21T13:05:19;12.10;99.90
6724;DHT22;3399;52.530;13.304;2024-02-21T13:07:45;11.90;99.90
6724;DHT22;3399;52.530;13.304;2024-02-21T13:10:10;11.90;99.90
6724;DHT22;3399;52.530;13.304;2024-02-21T13:12:36;11.80;99.90
6724;DHT22;3399;52.530;13.304;2024-02-21T13:15:02;11.70;99.90
6724;DHT22;3399;52.530;13.304;2024-02-21T13:17:27;11.90;99.90
6724;DHT22;3399;52.530;13.304;2024-02-21T13:19:55;11.90;99.90
6724;DHT22;3399;52.530;13.304;2024-02-21T13:22:21;11.90;99.90
6724;DHT22;3399;52.530;13.304;2024-02-21T13:24:51;11.90;99.90
6724;DHT22;3399;52.530;13.304;2024-02-21T13:27:16;11.90;99.90
6724;DHT22;3399;52.530;13.304;2024-02-21T13:29:42;12.10;99.90
6724;DHT22;3399;52.530;13.304;2024-02-21T13:32:09;12.10;99.90
6724;DHT22;3399;52.530;13.304;2024-02-21T13:34:35;12.10;99.90
6724;DHT22;3399;52.530;13.304;2024-02-21T13:37:00;12.00;99.90
6724;DHT22;3399;52.530;13.304;2024-02-21T13:39:26;11.80;99.90
6724;DHT22;3399;52.530;13.304;2024-02-21T13:41:51;11.80;99.90
6724;DHT22;3399;52.530;13.304;2024-02-21T13:44:17;11.80;99.90
6724;DHT22;3399;52.530;13.304;2024-02-21T13:46:42;11.80;99.90
6724;DHT22;3399;52.530;13.304;2024-02-21T13:49:08;11.80;99.90
6724;DHT22;3399;52.530;13.304;2024-02-21T13:51:34;11.70;99.90
6724;DHT22;3399;52.530;13.304;2024-02-21T13:54:02;11.50;99.90
6724;DHT22;3399;52.530;13.304;2024-02-21T13:56:28;11.60;99.90
6724;DHT22;3399;52.530;13.304;2024-02-21T13:58:54;11.70;99.90
6724;DHT22;3399;52.530;13.304;2024-02-21T14:01:20;11.80;99.90
6724;DHT22;3399;52.530;13.304;2024-02-21T14:03:48;11.70;99.90
6724;DHT22;3399;52.530;13.304;2024-02-21T14:06:14;11.70;99.90
6724;DHT22;3399;52.530;13.304;2024-02-21T14:08:39;11.60;99.90
6724;DHT22;3399;52.530;13.304;2024-02-21T14:11:08;11.80;99.90
6724;DHT22;3399;52.530;13.304;2024-02-21T14:13:33;11.80;99.90
6724;DHT22;3399;52.530;13.304;2024-02-21T14:15:59;11.80;99.90
6724;DHT22;3399;52.530;13.304;2024-02-21T14:18:24;11.70;99.90
6724;DHT22;3399;52.530;13.304;2024-02-21T14:20:54;11.80;99.90
6724;DHT22;3399;52.530;13.304;2024-02-21T14:23:23;11.90;99.90
6724;DHT22;3399;52.530;13.304;2024-02-21T14:25:51;12.00;99.90
6724;DHT22;3399;52.530;13.304;2024-02-21T14:28:18;12.00;99.90
6724;DHT22;3399;52.530;13.304;2024-02-21T14:30:48;12.00;99.90
6724;DHT22;3399;52.530;13.304;2024-02-21T14:33:16;12.10;99.90
6724;DHT22;3399;52.530;13.304;2024-02-21T14:35:42;12.10;99.90
6724;DHT22;3399;52.530;13.304;2024-02-21T14:38:14;12.00;99.90
6724;DHT22;3399;52.530;13.304;2024-02-21T14:40:40;12.00;99.90
6724;DHT22;3399;52.530;13.304;2024-02-21T14:43:06;12.00;99.90
6724;DHT22;3399;52.530;13.304;2024-02-21T14:45:36;12.00;99.90
6724;DHT22;3399;52.530;13.304;2024-02-21T14:48:32;12.10;99.90
6724;DHT22;3399;52.530;13.304;2024-02-21T14:51:09;12.10;99.90
6724;DHT22;3399;52.530;13.304;2024-02-21T14:53:44;12.00;99.90
6724;DHT22;3399;52.530;13.304;2024-02-21T14:56:14;12.00;99.90
6724;DHT22;3399;52.530;13.304;2024-02-21T14:58:46;11.90;99.90
6724;DHT22;3399;52.530;13.304;2024-02-21T15:01:14;12.00;99.90
6724;DHT22;3399;52.530;13.304;2024-02-21T15:03:39;12.00;99.90
6724;DHT22;3399;52.530;13.304;2024-02-21T15:06:05;12.00;99.90
6724;DHT22;3399;52.530;13.304;2024-02-21T15:08:30;11.90;99.90
6724;DHT22;3399;52.530;13.304;2024-02-21T15:10:56;12.00;99.90
6724;DHT22;3399;52.530;13.304;2024-02-21T15:13:21;12.00;99.90
6724;DHT22;3399;52.530;13.304;2024-02-21T15:15:48;12.00;99.90
6724;DHT22;3399;52.530;13.304;2024-02-21T15:18:14;12.00;99.90
6724;DHT22;3399;52.530;13.304;2024-02-21T15:20:40;12.00;99.90
6724;DHT22;3399;52.530;13.304;2024-02-21T15:23:06;11.90;99.90
6724;DHT22;3399;52.530;13.304;2024-02-21T15:25:32;11.80;99.90
6724;DHT22;3399;52.530;13.304;2024-02-21T15:28:03;11.80;99.90
6724;DHT22;3399;52.530;13.304;2024-02-21T15:30:29;11.80;99.90
6724;DHT22;3399;52.530;13.304;2024-02-21T15:32:57;11.80;99.90
6724;DHT22;3399;52.530;13.304;2024-02-21T15:35:27;11.80;99.90
6724;DHT22;3399;52.530;13.304;2024-02-21T15:37:53;11.80;99.90
6724;DHT22;3399;52.530;13.304;2024-02-21T15:40:21;11.80;99.90
6724;DHT22;3399;52.530;13.304;2024-02-21T15:42:47;11.80;99.90
6724;DHT22;3399;52.530;13.304;2024-02-21T15:45:12;11.60;99.90
6724;DHT22;3399;52.530;13.304;2024-02-21T15:47:38;11.50;99.90
6724;DHT22;3399;52.530;13.304;2024-02-21T15:50:03;11.50;99.90
6724;DHT22;3399;52.530;13.304;2024-02-21T15:52:29;11.40;99.90
6724;DHT22;3399;52.530;13.304;2024-02-21T15:54:55;11.40;99.90